Pacific Heron — 5BVD3 — position and weather

sailwx.info

Track history (hours):
 
Tides and Currents Weather Stations Pressure Air Temp Water Temp Dewpoint Dewpoint Depression Visibility Wind Speed Wind Dir Waves Ship Positions

Pacific Heron

Last reported at 2017-Sep-24 23:13 UTC. Time now 2017-Sep-25 07:45 UTC.
Position N 04°38' W 002°01'.

Length 88 m; draft 5.4 m.

Type: Other ship. MMSI: 209832000.

Date/timePositionNaut miles runAvg speedWind from/ knotsBaromVisibWave heightAir tempDewpointWater temp
2017-Sep-24 23:13N 04°38' W 002°01'4 8.7
2017-Sep-24 22:48N 04°37' W 002°04'3 8.7
2017-Sep-24 22:30N 04°36' W 002°07'5 9.2
2017-Sep-24 21:59N 04°35' W 002°11'4 8.9
2017-Sep-24 21:30N 04°34' W 002°15'4 8.5
2017-Sep-24 21:00N 04°33' W 002°19'4 8.9
2017-Sep-24 20:30N 04°31' W 002°24'5 8.9
2017-Sep-24 19:59N 04°30' W 002°28'4 8.1
2017-Sep-24 19:29N 04°28' W 002°32'1 1.0
2017-Sep-24 18:59N 04°27' W 002°32'0 0.6
2017-Sep-24 18:30N 04°28' W 002°32'2 4.2
2017-Sep-24 18:00N 04°28' W 002°34'0 0.1
2017-Sep-24 17:30N 04°28' W 002°34'0 0.7
2017-Sep-24 16:59N 04°29' W 002°34'0 0.8
2017-Sep-24 16:29N 04°29' W 002°33'1 2.1
2017-Sep-24 16:00N 04°29' W 002°32'0 0.5
2017-Sep-24 15:30N 04°29' W 002°32'0 0.0
2017-Sep-24 14:59N 04°29' W 002°32'0 0.0
2017-Sep-24 14:29N 04°29' W 002°32'0 0.0
2017-Sep-24 13:59N 04°29' W 002°32'0 0.0
2017-Sep-24 13:30N 04°29' W 002°32'0 0.0
2017-Sep-24 13:00N 04°29' W 002°32'0 0.0
2017-Sep-24 12:30N 04°29' W 002°32'0 0.0
2017-Sep-24 11:59N 04°29' W 002°32'0 0.0
2017-Sep-24 11:31N 04°29' W 002°32'0 0.0
2017-Sep-24 11:00N 04°29' W 002°32'0 0.0
2017-Sep-24 10:30N 04°29' W 002°32'0 0.0
2017-Sep-24 09:59N 04°29' W 002°32'0 0.0
2017-Sep-24 09:29N 04°29' W 002°32'0 0.0
2017-Sep-24 09:00N 04°29' W 002°32'0 0.0
2017-Sep-24 08:30N 04°29' W 002°32'0 0.0
2017-Sep-24 08:00N 04°29' W 002°32'0 0.0
2017-Sep-24 07:30N 04°29' W 002°32'0 0.0
2017-Sep-24 06:55N 04°29' W 002°32'0 0.0
2017-Sep-24 06:29N 04°29' W 002°32'0 0.0
2017-Sep-24 06:01N 04°29' W 002°32'0 0.0
2017-Sep-24 05:30N 04°29' W 002°32'0 0.0
2017-Sep-24 05:00N 04°29' W 002°32'0 0.0
2017-Sep-24 04:29N 04°29' W 002°32'0 0.0
2017-Sep-24 03:59N 04°29' W 002°32'0 0.0
2017-Sep-24 03:30N 04°29' W 002°32'0 0.0
2017-Sep-24 03:00N 04°29' W 002°32'0 0.0
2017-Sep-24 02:29N 04°29' W 002°32'0 0.0
2017-Sep-24 01:59N 04°29' W 002°32'0 0.0
2017-Sep-24 01:29N 04°29' W 002°32'0 0.0
2017-Sep-24 00:59N 04°29' W 002°32'0 0.0
2017-Sep-24 00:30N 04°29' W 002°32'0 0.0
2017-Sep-24 00:00N 04°29' W 002°32'0 0.0
2017-Sep-23 23:30N 04°29' W 002°32'0 0.0
2017-Sep-23 22:59N 04°29' W 002°32'0 0.0
2017-Sep-23 22:29N 04°29' W 002°32'0 0.0
2017-Sep-23 21:59N 04°29' W 002°32'0 0.0
2017-Sep-23 21:30N 04°29' W 002°32'0 0.0
2017-Sep-23 21:00N 04°29' W 002°32'0 0.0
2017-Sep-23 20:30N 04°29' W 002°32'0 0.0
2017-Sep-23 19:59N 04°29' W 002°32'2 0.0
2017-Sep-22 01:59N 04°30' W 002°31'0 0.0
2017-Sep-22 01:29N 04°30' W 002°31'0 0.0
2017-Sep-22 01:00N 04°30' W 002°31'0 0.0
2017-Sep-22 00:30N 04°30' W 002°31'0 0.0
2017-Sep-22 00:00N 04°30' W 002°31'0 0.0
2017-Sep-21 23:29N 04°30' W 002°31'0 0.0
2017-Sep-21 22:59N 04°30' W 002°31'1 1.2
2017-Sep-21 22:29N 04°29' W 002°31'0 0.0
2017-Sep-21 22:00N 04°29' W 002°31'0 0.0
2017-Sep-21 21:30N 04°29' W 002°31'0 0.0
2017-Sep-21 21:00N 04°29' W 002°31'0 0.0
2017-Sep-21 20:29N 04°29' W 002°31'0 0.0
2017-Sep-21 19:59N 04°29' W 002°31'0 0.0
2017-Sep-21 19:29N 04°29' W 002°31'0 0.0
2017-Sep-21 19:00N 04°29' W 002°31'0 0.0
2017-Sep-21 18:30N 04°29' W 002°31'0 0.0
2017-Sep-21 18:00N 04°29' W 002°31'1 2.2
2017-Sep-21 17:29N 04°29' W 002°32'2 3.1
2017-Sep-21 16:59N 04°29' W 002°34'0 0.3
2017-Sep-21 16:29N 04°30' W 002°34'0 0.5
2017-Sep-21 15:59N 04°30' W 002°33'3 5.4
2017-Sep-21 15:29N 04°29' W 002°31'0 0.1
2017-Sep-21 15:01N 04°29' W 002°31'0 0.4
2017-Sep-21 14:30N 04°28' W 002°31'0 0.7
2017-Sep-21 14:00N 04°28' W 002°31'0 0.6
2017-Sep-21 13:30N 04°28' W 002°31'1 1.7
2017-Sep-21 12:59N 04°27' W 002°32'0 0.2
2017-Sep-21 12:29N 04°27' W 002°32'0 0.4
2017-Sep-21 12:00N 04°28' W 002°32'1 2.7
2017-Sep-21 11:30N 04°29' W 002°32'0 0.0
2017-Sep-21 10:59N 04°29' W 002°32'1 2.5
2017-Sep-21 10:29N 04°29' W 002°31'0 0.7
2017-Sep-21 10:00N 04°29' W 002°30'0 0.3
2017-Sep-21 09:30N 04°29' W 002°31'0 0.5
2017-Sep-21 09:00N 04°28' W 002°31'0 0.1
2017-Sep-21 08:29N 04°28' W 002°31'0 0.6
2017-Sep-21 07:59N 04°28' W 002°31'2 4.7
2017-Sep-21 07:29N 04°27' W 002°33'1 2.7
2017-Sep-21 06:59N 04°28' W 002°35'0 0.0
2017-Sep-21 06:30N 04°28' W 002°35'0 0.0
2017-Sep-21 06:00N 04°28' W 002°35'0 0.1
2017-Sep-21 05:29N 04°28' W 002°35'0 0.6
2017-Sep-21 04:59N 04°28' W 002°34'0 0.2
2017-Sep-21 04:30N 04°28' W 002°34'2 3.4
2017-Sep-21 04:00N 04°29' W 002°33'1 2.3
2017-Sep-21 03:30N 04°29' W 002°32'0 0.0
2017-Sep-21 03:00N 04°29' W 002°32'0 0.0
2017-Sep-21 02:29N 04°29' W 002°32'0 0.0
2017-Sep-21 01:59N 04°29' W 002°32'0 0.0
2017-Sep-21 01:30N 04°29' W 002°32'0 0.0
2017-Sep-21 01:00N 04°29' W 002°32'0 0.0
2017-Sep-21 00:27N 04°29' W 002°32'0 0.0
2017-Sep-21 00:00N 04°29' W 002°32'0 0.0
2017-Sep-20 23:30N 04°29' W 002°32'0 0.0
2017-Sep-20 23:00N 04°29' W 002°32'0 0.0
2017-Sep-20 22:29N 04°29' W 002°32'0 0.0
2017-Sep-20 22:00N 04°29' W 002°32'1 1.6
2017-Sep-20 21:30N 04°28' W 002°32'0 0.6
2017-Sep-20 20:58N 04°28' W 002°32'0 0.0
2017-Sep-20 20:29N 04°28' W 002°32'0 0.2
2017-Sep-20 19:59N 04°28' W 002°32'0 0.6
2017-Sep-20 19:30N 04°28' W 002°33'1 2.3
2017-Sep-20 19:00N 04°29' W 002°33'0 0.2
2017-Sep-20 18:30N 04°29' W 002°33'0 0.0
2017-Sep-20 17:59N 04°29' W 002°33'0 0.0
2017-Sep-20 17:29N 04°29' W 002°33'0 0.0
2017-Sep-20 17:00N 04°29' W 002°33'0 0.0
2017-Sep-20 16:30N 04°29' W 002°33'0 0.0
2017-Sep-20 15:59N 04°29' W 002°33'0 0.0
2017-Sep-20 15:29N 04°29' W 002°33'0 0.0
2017-Sep-20 14:59N 04°29' W 002°33'0 0.0
2017-Sep-20 14:00N 04°29' W 002°33'0 0.0
2017-Sep-20 13:30N 04°29' W 002°33'0 0.0
2017-Sep-20 12:59N 04°29' W 002°33'0 0.0
2017-Sep-20 12:29N 04°29' W 002°33'0 0.0
2017-Sep-20 12:01N 04°29' W 002°33'0 0.0
2017-Sep-20 11:30N 04°29' W 002°33'0 0.0
2017-Sep-20 11:00N 04°29' W 002°33'0 0.1
2017-Sep-20 10:30N 04°29' W 002°33'0 0.3
2017-Sep-20 09:59N 04°29' W 002°33'0 0.0
2017-Sep-20 09:29N 04°29' W 002°33'0 0.0
2017-Sep-20 09:01N 04°29' W 002°33'0 0.0
2017-Sep-20 08:30N 04°29' W 002°33'0 0.0
2017-Sep-20 08:00N 04°29' W 002°33'0 0.0
2017-Sep-20 07:29N 04°29' W 002°33'0 0.0
2017-Sep-20 06:59N 04°29' W 002°33'0 0.3
2017-Sep-20 06:30N 04°29' W 002°33'1 2.2
2017-Sep-20 06:00N 04°30' W 002°33'0 0.5
2017-Sep-20 05:29N 04°29' W 002°32'0 0.0
2017-Sep-20 04:59N 04°29' W 002°32'0 0.0
2017-Sep-20 04:30N 04°29' W 002°32'0 0.0
2017-Sep-20 04:00N 04°29' W 002°32'0 0.0
2017-Sep-20 03:30N 04°29' W 002°32'0 0.0
2017-Sep-20 02:59N 04°29' W 002°32'0 0.0
2017-Sep-20 02:29N 04°29' W 002°32'0 0.0
2017-Sep-20 02:00N 04°29' W 002°32'0 0.0
2017-Sep-20 01:29N 04°29' W 002°32'0 0.4
2017-Sep-20 00:59N 04°30' W 002°32'0 0.3
2017-Sep-20 00:29N 04°30' W 002°32'0 0.0
2017-Sep-20 00:01N 04°30' W 002°32'0 0.0
2017-Sep-19 23:30N 04°30' W 002°32'0 0.0
2017-Sep-19 23:00N 04°30' W 002°32'0 0.4
2017-Sep-19 22:30N 04°29' W 002°32'0 0.5
2017-Sep-19 21:59N 04°29' W 002°32'0 0.0
2017-Sep-19 21:29N 04°29' W 002°32'0 0.0
2017-Sep-19 21:01N 04°29' W 002°32'0 0.0
2017-Sep-19 20:30N 04°29' W 002°32'0 0.3
2017-Sep-19 20:00N 04°29' W 002°32'5 9.1
2017-Sep-19 19:29N 04°31' W 002°28'510.2
2017-Sep-19 19:00N 04°32' W 002°23'510.2
2017-Sep-19 18:29N 04°33' W 002°18'510.5
2017-Sep-19 18:00N 04°35' W 002°13'610.6
2017-Sep-19 17:29N 04°36' W 002°08'510.5
2017-Sep-19 17:00N 04°37' W 002°03'510.4
2017-Sep-19 16:30N 04°39' W 001°58'510.4
2017-Sep-19 15:59N 04°41' W 001°53'510.2
2017-Sep-19 15:30N 04°44' W 001°49'510.0
2017-Sep-19 15:00N 04°47' W 001°45'5 9.8
2017-Sep-19 14:30N 04°51' W 001°43'3 5.0
2017-Sep-19 14:00N 04°54' W 001°43'1 2.4
2017-Sep-19 13:29N 04°53' W 001°44'0 0.0
2017-Sep-19 12:59N 04°53' W 001°44'0 0.0
2017-Sep-19 12:30N 04°53' W 001°44'0 0.0
2017-Sep-19 11:59N 04°53' W 001°44'0 0.0
2017-Sep-19 11:29N 04°53' W 001°44'0 0.0
2017-Sep-19 10:59N 04°53' W 001°44'0 0.0
2017-Sep-19 10:29N 04°53' W 001°44'0 0.0
2017-Sep-19 09:59N 04°53' W 001°44'0 0.0
2017-Sep-19 09:29N 04°53' W 001°44'0 0.0
2017-Sep-19 08:59N 04°53' W 001°44'1 2.2
2017-Sep-19 08:24N 04°54' W 001°43'1 2.9
2017-Sep-19 08:00N 04°53' W 001°42'0 0.0
2017-Sep-19 07:30N 04°53' W 001°42'0 0.0
2017-Sep-19 07:00N 04°53' W 001°42'2 3.6
2017-Sep-19 06:24N 04°51' W 001°43'11 9.3
2017-Sep-19 05:14N 04°43' W 001°50'2 9.6
2017-Sep-19 05:00N 04°42' W 001°52'9 9.8
2017-Sep-19 04:05N 04°39' W 002°00'1 9.9
2017-Sep-19 03:57N 04°38' W 002°02'5 9.9
2017-Sep-19 03:25N 04°36' W 002°07'410.0
2017-Sep-19 03:01N 04°35' W 002°11'510.2
2017-Sep-19 02:30N 04°34' W 002°15'510.0
2017-Sep-19 02:00N 04°32' W 002°20'510.1
2017-Sep-19 01:30N 04°31' W 002°25'5 9.9
2017-Sep-19 01:00N 04°30' W 002°30'2 3.1
2017-Sep-19 00:29N 04°29' W 002°31'0 0.0
2017-Sep-18 23:59N 04°29' W 002°31'0 0.0
2017-Sep-18 23:29N 04°29' W 002°31'0 0.0
2017-Sep-18 23:00N 04°29' W 002°31'1 2.5
2017-Sep-18 22:30N 04°29' W 002°33'1 1.0
2017-Sep-18 22:00N 04°28' W 002°33'0 0.1
2017-Sep-18 21:29N 04°28' W 002°33'0 0.2
2017-Sep-18 20:59N 04°28' W 002°33'0 0.6
2017-Sep-18 20:31N 04°29' W 002°33'0 0.0
2017-Sep-18 20:00N 04°29' W 002°33'0 0.0
2017-Sep-18 19:30N 04°29' W 002°33'0 0.5
2017-Sep-18 19:00N 04°28' W 002°33'2 3.0
2017-Sep-18 18:29N 04°30' W 002°32'0 0.1
2017-Sep-18 17:59N 04°30' W 002°32'0 0.0
2017-Sep-18 17:30N 04°30' W 002°32'0 0.0
2017-Sep-18 17:00N 04°30' W 002°32'0 0.0
2017-Sep-18 16:29N 04°30' W 002°32'0 0.0
2017-Sep-18 15:59N 04°30' W 002°32'0 0.0
2017-Sep-18 15:30N 04°30' W 002°32'0 0.3
2017-Sep-18 15:00N 04°30' W 002°32'0 0.0
2017-Sep-18 14:30N 04°30' W 002°32'0 0.0
2017-Sep-18 14:00N 04°30' W 002°32'0 0.0
2017-Sep-18 13:29N 04°30' W 002°32'0 0.0
2017-Sep-18 12:59N 04°30' W 002°32'0 0.0
2017-Sep-18 12:30N 04°30' W 002°32'0 0.0
2017-Sep-18 12:00N 04°30' W 002°32'0 0.0
2017-Sep-18 11:30N 04°30' W 002°32'0 0.0
2017-Sep-18 10:59N 04°30' W 002°32'0 0.0
2017-Sep-18 10:30N 04°30' W 002°32'0 0.0
2017-Sep-18 09:58N 04°30' W 002°32'0 0.0
2017-Sep-18 09:29N 04°30' W 002°32'0 0.0
2017-Sep-18 08:59N 04°30' W 002°32'0 0.0
2017-Sep-18 08:29N 04°30' W 002°32'0 0.0
2017-Sep-18 07:59N 04°30' W 002°32'0 0.0
2017-Sep-18 07:30N 04°30' W 002°32'0 0.0
2017-Sep-18 07:00N 04°30' W 002°32'0 0.0
2017-Sep-18 06:29N 04°30' W 002°32'0 0.0
2017-Sep-18 05:59N 04°30' W 002°32'0 0.0
2017-Sep-18 05:29N 04°30' W 002°32'0 0.0
2017-Sep-18 05:00N 04°30' W 002°32'0 0.0
2017-Sep-18 04:30N 04°30' W 002°32'0 0.0
2017-Sep-18 03:59N 04°30' W 002°32'0 0.0
2017-Sep-18 03:29N 04°30' W 002°32'0 0.0
2017-Sep-18 02:59N 04°30' W 002°32'0 0.0
2017-Sep-18 02:30N 04°30' W 002°32'0 0.0
2017-Sep-18 01:59N 04°30' W 002°32'0 0.0
2017-Sep-18 01:29N 04°30' W 002°32'0 0.0
2017-Sep-18 01:00N 04°30' W 002°32'0 0.0
2017-Sep-18 00:30N 04°30' W 002°32'0 0.0
2017-Sep-18 00:00N 04°30' W 002°32'0 0.0
2017-Sep-17 23:30N 04°30' W 002°32'0 0.0
2017-Sep-17 22:57N 04°30' W 002°32'0 0.0
2017-Sep-17 22:29N 04°30' W 002°32'0 0.0
2017-Sep-17 22:01N 04°30' W 002°32'0 0.0
2017-Sep-17 21:30N 04°30' W 002°32'0 0.0
2017-Sep-17 21:00N 04°30' W 002°32'0 0.0
2017-Sep-17 20:30N 04°30' W 002°32'0 0.0
2017-Sep-17 20:00N 04°30' W 002°32'0 0.0
2017-Sep-17 19:29N 04°30' W 002°32'0 0.0
2017-Sep-17 18:59N 04°30' W 002°32'0 0.0
2017-Sep-17 18:30N 04°30' W 002°32'0 0.0
2017-Sep-17 18:00N 04°30' W 002°32'0 0.0
2017-Sep-17 17:30N 04°30' W 002°32'0 0.0
2017-Sep-17 17:00N 04°30' W 002°32'0 0.0
2017-Sep-17 16:29N 04°30' W 002°32'0 0.0
2017-Sep-17 16:00N 04°30' W 002°32'0 0.0
2017-Sep-17 15:30N 04°30' W 002°32'0 0.0
2017-Sep-17 14:59N 04°30' W 002°32'0 0.0
2017-Sep-17 14:29N 04°30' W 002°32'0 0.0
2017-Sep-17 13:59N 04°30' W 002°32'0 0.0
2017-Sep-17 13:30N 04°30' W 002°32'0 0.0
2017-Sep-17 12:59N 04°30' W 002°32'0 0.0
2017-Sep-17 12:29N 04°30' W 002°32'0 0.0
2017-Sep-17 12:00N 04°30' W 002°32'0 0.0
2017-Sep-17 11:30N 04°30' W 002°32'0 0.0
2017-Sep-17 10:59N 04°30' W 002°32'0 0.0
2017-Sep-17 10:29N 04°30' W 002°32'0 0.0
2017-Sep-17 09:59N 04°30' W 002°32'0 0.1
2017-Sep-17 09:30N 04°30' W 002°32'0 0.3
2017-Sep-17 09:00N 04°29' W 002°32'0 0.0
2017-Sep-17 08:30N 04°29' W 002°32'0 0.0
2017-Sep-17 07:59N 04°29' W 002°32'0 0.0
2017-Sep-17 07:31N 04°29' W 002°32'0 0.0
2017-Sep-17 07:00N 04°29' W 002°32'0 0.0
2017-Sep-17 06:29N 04°29' W 002°32'0 0.2
2017-Sep-17 05:59N 04°29' W 002°31'0 0.2
2017-Sep-17 05:29N 04°29' W 002°31'0 0.0
2017-Sep-17 04:59N 04°29' W 002°31'0 0.0
2017-Sep-17 04:30N 04°29' W 002°31'0 0.0
2017-Sep-17 04:00N 04°29' W 002°31'0 0.0
2017-Sep-17 03:29N 04°29' W 002°31'0 0.0
2017-Sep-17 02:59N 04°29' W 002°31'0 0.0
2017-Sep-17 02:29N 04°29' W 002°31'0 0.0
2017-Sep-17 01:59N 04°29' W 002°31'0 0.0
2017-Sep-17 01:30N 04°29' W 002°31'0 0.0
2017-Sep-17 01:00N 04°29' W 002°31'0 0.0
2017-Sep-17 00:29N 04°29' W 002°31'0 0.0
2017-Sep-16 23:59N 04°29' W 002°31'0 0.0
2017-Sep-16 23:29N 04°29' W 002°31'0 0.0
2017-Sep-16 23:00N 04°29' W 002°31'0 0.1
2017-Sep-16 22:30N 04°29' W 002°31'1 2.1
2017-Sep-16 22:00N 04°29' W 002°30'0 0.0
2017-Sep-16 21:29N 04°29' W 002°30'0 0.1
2017-Sep-16 20:59N 04°29' W 002°30'0 0.4
2017-Sep-16 20:30N 04°29' W 002°31'1 1.5
2017-Sep-16 20:00N 04°30' W 002°31'0 0.0
2017-Sep-16 19:30N 04°30' W 002°31'0 0.0
2017-Sep-16 18:59N 04°30' W 002°31'0 1.0
2017-Sep-16 18:29N 04°29' W 002°31'0 0.2
2017-Sep-16 18:00N 04°29' W 002°31'0 0.3
2017-Sep-16 17:30N 04°29' W 002°31'1 1.4
2017-Sep-16 16:59N 04°29' W 002°32'1 2.7
2017-Sep-16 16:29N 04°29' W 002°33'1 1.5
2017-Sep-16 15:59N 04°28' W 002°33'0 0.0
2017-Sep-16 15:25N 04°28' W 002°33'0 0.2
2017-Sep-16 15:00N 04°28' W 002°33'0 0.6
2017-Sep-16 14:30N 04°29' W 002°33'0 1.0
2017-Sep-16 13:59N 04°28' W 002°33'0 0.1
2017-Sep-16 13:29N 04°28' W 002°33'0 0.0
2017-Sep-16 12:59N 04°28' W 002°33'0 0.3
2017-Sep-16 12:30N 04°28' W 002°33'0 0.5
2017-Sep-16 12:00N 04°28' W 002°33'0 0.2
2017-Sep-16 11:29N 04°28' W 002°33'1 2.8
2017-Sep-16 10:59N 04°29' W 002°31'1 1.6
2017-Sep-16 10:29N 04°29' W 002°30'0 0.0
2017-Sep-16 10:00N 04°29' W 002°30'0 0.1
2017-Sep-16 09:30N 04°29' W 002°30'0 0.5
2017-Sep-16 08:59N 04°29' W 002°31'0 0.3
2017-Sep-16 08:29N 04°29' W 002°31'0 0.0
2017-Sep-16 07:59N 04°29' W 002°31'0 0.6
2017-Sep-16 07:30N 04°29' W 002°31'0 0.0
2017-Sep-16 07:00N 04°29' W 002°31'0 0.0
2017-Sep-16 06:29N 04°29' W 002°31'0 0.8
2017-Sep-16 05:59N 04°29' W 002°31'3 6.4
2017-Sep-16 05:30N 04°31' W 002°28'5 9.3
2017-Sep-16 05:00N 04°32' W 002°23'5 9.4
2017-Sep-16 04:30N 04°33' W 002°19'5 9.3
2017-Sep-16 03:55N 04°34' W 002°13'4 9.4
2017-Sep-16 03:29N 04°35' W 002°10'4 9.3
2017-Sep-16 03:00N 04°37' W 002°05'5 9.5
2017-Sep-16 02:30N 04°39' W 002°01'510.6
2017-Sep-16 01:59N 04°41' W 001°56'510.8
2017-Sep-16 01:30N 04°43' W 001°51'510.6
2017-Sep-16 01:00N 04°46' W 001°47'610.5
2017-Sep-16 00:23N 04°51' W 001°43'2 0.1
2017-Sep-15 00:20N 04°53' W 001°42'0 0.0
2017-Sep-14 23:53N 04°53' W 001°42'  
Track history (hours):
 
Tides and Currents Weather Stations Pressure Air Temp Water Temp Dewpoint Dewpoint Depression Visibility Wind Speed Wind Dir Waves Ship Positions

Pacific Heron

Last reported at 2017-Sep-24 23:13 UTC. Time now 2017-Sep-25 07:45 UTC.
Position N 04°38' W 002°01'.

Length 88 m; draft 5.4 m.

Type: Other ship. MMSI: 209832000.

Date/timePositionNaut miles runAvg speedWind from/ knotsBaromVisibWave heightAir tempDewpointWater temp
2017-Sep-24 23:13N 04°38' W 002°01'4 8.7
2017-Sep-24 22:48N 04°37' W 002°04'3 8.7
2017-Sep-24 22:30N 04°36' W 002°07'5 9.2
2017-Sep-24 21:59N 04°35' W 002°11'4 8.9
2017-Sep-24 21:30N 04°34' W 002°15'4 8.5
2017-Sep-24 21:00N 04°33' W 002°19'4 8.9
2017-Sep-24 20:30N 04°31' W 002°24'5 8.9
2017-Sep-24 19:59N 04°30' W 002°28'4 8.1
2017-Sep-24 19:29N 04°28' W 002°32'1 1.0
2017-Sep-24 18:59N 04°27' W 002°32'0 0.6
2017-Sep-24 18:30N 04°28' W 002°32'2 4.2
2017-Sep-24 18:00N 04°28' W 002°34'0 0.1
2017-Sep-24 17:30N 04°28' W 002°34'0 0.7
2017-Sep-24 16:59N 04°29' W 002°34'0 0.8
2017-Sep-24 16:29N 04°29' W 002°33'1 2.1
2017-Sep-24 16:00N 04°29' W 002°32'0 0.5
2017-Sep-24 15:30N 04°29' W 002°32'0 0.0
2017-Sep-24 14:59N 04°29' W 002°32'0 0.0
2017-Sep-24 14:29N 04°29' W 002°32'0 0.0
2017-Sep-24 13:59N 04°29' W 002°32'0 0.0
2017-Sep-24 13:30N 04°29' W 002°32'0 0.0
2017-Sep-24 13:00N 04°29' W 002°32'0 0.0
2017-Sep-24 12:30N 04°29' W 002°32'0 0.0
2017-Sep-24 11:59N 04°29' W 002°32'0 0.0
2017-Sep-24 11:31N 04°29' W 002°32'0 0.0
2017-Sep-24 11:00N 04°29' W 002°32'0 0.0
2017-Sep-24 10:30N 04°29' W 002°32'0 0.0
2017-Sep-24 09:59N 04°29' W 002°32'0 0.0
2017-Sep-24 09:29N 04°29' W 002°32'0 0.0
2017-Sep-24 09:00N 04°29' W 002°32'0 0.0
2017-Sep-24 08:30N 04°29' W 002°32'0 0.0
2017-Sep-24 08:00N 04°29' W 002°32'0 0.0
2017-Sep-24 07:30N 04°29' W 002°32'0 0.0
2017-Sep-24 06:55N 04°29' W 002°32'0 0.0
2017-Sep-24 06:29N 04°29' W 002°32'0 0.0
2017-Sep-24 06:01N 04°29' W 002°32'0 0.0
2017-Sep-24 05:30N 04°29' W 002°32'0 0.0
2017-Sep-24 05:00N 04°29' W 002°32'0 0.0
2017-Sep-24 04:29N 04°29' W 002°32'0 0.0
2017-Sep-24 03:59N 04°29' W 002°32'0 0.0
2017-Sep-24 03:30N 04°29' W 002°32'0 0.0
2017-Sep-24 03:00N 04°29' W 002°32'0 0.0
2017-Sep-24 02:29N 04°29' W 002°32'0 0.0
2017-Sep-24 01:59N 04°29' W 002°32'0 0.0
2017-Sep-24 01:29N 04°29' W 002°32'0 0.0
2017-Sep-24 00:59N 04°29' W 002°32'0 0.0
2017-Sep-24 00:30N 04°29' W 002°32'0 0.0
2017-Sep-24 00:00N 04°29' W 002°32'0 0.0
2017-Sep-23 23:30N 04°29' W 002°32'0 0.0
2017-Sep-23 22:59N 04°29' W 002°32'0 0.0
2017-Sep-23 22:29N 04°29' W 002°32'0 0.0
2017-Sep-23 21:59N 04°29' W 002°32'0 0.0
2017-Sep-23 21:30N 04°29' W 002°32'0 0.0
2017-Sep-23 21:00N 04°29' W 002°32'0 0.0
2017-Sep-23 20:30N 04°29' W 002°32'0 0.0
2017-Sep-23 19:59N 04°29' W 002°32'2 0.0
2017-Sep-22 01:59N 04°30' W 002°31'0 0.0
2017-Sep-22 01:29N 04°30' W 002°31'0 0.0
2017-Sep-22 01:00N 04°30' W 002°31'0 0.0
2017-Sep-22 00:30N 04°30' W 002°31'0 0.0
2017-Sep-22 00:00N 04°30' W 002°31'0 0.0
2017-Sep-21 23:29N 04°30' W 002°31'0 0.0
2017-Sep-21 22:59N 04°30' W 002°31'1 1.2
2017-Sep-21 22:29N 04°29' W 002°31'0 0.0
2017-Sep-21 22:00N 04°29' W 002°31'0 0.0
2017-Sep-21 21:30N 04°29' W 002°31'0 0.0
2017-Sep-21 21:00N 04°29' W 002°31'0 0.0
2017-Sep-21 20:29N 04°29' W 002°31'0 0.0
2017-Sep-21 19:59N 04°29' W 002°31'0 0.0
2017-Sep-21 19:29N 04°29' W 002°31'0 0.0
2017-Sep-21 19:00N 04°29' W 002°31'0 0.0
2017-Sep-21 18:30N 04°29' W 002°31'0 0.0
2017-Sep-21 18:00N 04°29' W 002°31'1 2.2
2017-Sep-21 17:29N 04°29' W 002°32'2 3.1
2017-Sep-21 16:59N 04°29' W 002°34'0 0.3
2017-Sep-21 16:29N 04°30' W 002°34'0 0.5
2017-Sep-21 15:59N 04°30' W 002°33'3 5.4
2017-Sep-21 15:29N 04°29' W 002°31'0 0.1
2017-Sep-21 15:01N 04°29' W 002°31'0 0.4
2017-Sep-21 14:30N 04°28' W 002°31'0 0.7
2017-Sep-21 14:00N 04°28' W 002°31'0 0.6
2017-Sep-21 13:30N 04°28' W 002°31'1 1.7
2017-Sep-21 12:59N 04°27' W 002°32'0 0.2
2017-Sep-21 12:29N 04°27' W 002°32'0 0.4
2017-Sep-21 12:00N 04°28' W 002°32'1 2.7
2017-Sep-21 11:30N 04°29' W 002°32'0 0.0
2017-Sep-21 10:59N 04°29' W 002°32'1 2.5
2017-Sep-21 10:29N 04°29' W 002°31'0 0.7
2017-Sep-21 10:00N 04°29' W 002°30'0 0.3
2017-Sep-21 09:30N 04°29' W 002°31'0 0.5
2017-Sep-21 09:00N 04°28' W 002°31'0 0.1
2017-Sep-21 08:29N 04°28' W 002°31'0 0.6
2017-Sep-21 07:59N 04°28' W 002°31'2 4.7
2017-Sep-21 07:29N 04°27' W 002°33'1 2.7
2017-Sep-21 06:59N 04°28' W 002°35'0 0.0
2017-Sep-21 06:30N 04°28' W 002°35'0 0.0
2017-Sep-21 06:00N 04°28' W 002°35'0 0.1
2017-Sep-21 05:29N 04°28' W 002°35'0 0.6
2017-Sep-21 04:59N 04°28' W 002°34'0 0.2
2017-Sep-21 04:30N 04°28' W 002°34'2 3.4
2017-Sep-21 04:00N 04°29' W 002°33'1 2.3
2017-Sep-21 03:30N 04°29' W 002°32'0 0.0
2017-Sep-21 03:00N 04°29' W 002°32'0 0.0
2017-Sep-21 02:29N 04°29' W 002°32'0 0.0
2017-Sep-21 01:59N 04°29' W 002°32'0 0.0
2017-Sep-21 01:30N 04°29' W 002°32'0 0.0
2017-Sep-21 01:00N 04°29' W 002°32'0 0.0
2017-Sep-21 00:27N 04°29' W 002°32'0 0.0
2017-Sep-21 00:00N 04°29' W 002°32'0 0.0
2017-Sep-20 23:30N 04°29' W 002°32'0 0.0
2017-Sep-20 23:00N 04°29' W 002°32'0 0.0
2017-Sep-20 22:29N 04°29' W 002°32'0 0.0
2017-Sep-20 22:00N 04°29' W 002°32'1 1.6
2017-Sep-20 21:30N 04°28' W 002°32'0 0.6
2017-Sep-20 20:58N 04°28' W 002°32'0 0.0
2017-Sep-20 20:29N 04°28' W 002°32'0 0.2
2017-Sep-20 19:59N 04°28' W 002°32'0 0.6
2017-Sep-20 19:30N 04°28' W 002°33'1 2.3
2017-Sep-20 19:00N 04°29' W 002°33'0 0.2
2017-Sep-20 18:30N 04°29' W 002°33'0 0.0
2017-Sep-20 17:59N 04°29' W 002°33'0 0.0
2017-Sep-20 17:29N 04°29' W 002°33'0 0.0
2017-Sep-20 17:00N 04°29' W 002°33'0 0.0
2017-Sep-20 16:30N 04°29' W 002°33'0 0.0
2017-Sep-20 15:59N 04°29' W 002°33'0 0.0
2017-Sep-20 15:29N 04°29' W 002°33'0 0.0
2017-Sep-20 14:59N 04°29' W 002°33'0 0.0
2017-Sep-20 14:00N 04°29' W 002°33'0 0.0
2017-Sep-20 13:30N 04°29' W 002°33'0 0.0
2017-Sep-20 12:59N 04°29' W 002°33'0 0.0
2017-Sep-20 12:29N 04°29' W 002°33'0 0.0
2017-Sep-20 12:01N 04°29' W 002°33'0 0.0
2017-Sep-20 11:30N 04°29' W 002°33'0 0.0
2017-Sep-20 11:00N 04°29' W 002°33'0 0.1
2017-Sep-20 10:30N 04°29' W 002°33'0 0.3
2017-Sep-20 09:59N 04°29' W 002°33'0 0.0
2017-Sep-20 09:29N 04°29' W 002°33'0 0.0
2017-Sep-20 09:01N 04°29' W 002°33'0 0.0
2017-Sep-20 08:30N 04°29' W 002°33'0 0.0
2017-Sep-20 08:00N 04°29' W 002°33'0 0.0
2017-Sep-20 07:29N 04°29' W 002°33'0 0.0
2017-Sep-20 06:59N 04°29' W 002°33'0 0.3
2017-Sep-20 06:30N 04°29' W 002°33'1 2.2
2017-Sep-20 06:00N 04°30' W 002°33'0 0.5
2017-Sep-20 05:29N 04°29' W 002°32'0 0.0
2017-Sep-20 04:59N 04°29' W 002°32'0 0.0
2017-Sep-20 04:30N 04°29' W 002°32'0 0.0
2017-Sep-20 04:00N 04°29' W 002°32'0 0.0
2017-Sep-20 03:30N 04°29' W 002°32'0 0.0
2017-Sep-20 02:59N 04°29' W 002°32'0 0.0
2017-Sep-20 02:29N 04°29' W 002°32'0 0.0
2017-Sep-20 02:00N 04°29' W 002°32'0 0.0
2017-Sep-20 01:29N 04°29' W 002°32'0 0.4
2017-Sep-20 00:59N 04°30' W 002°32'0 0.3
2017-Sep-20 00:29N 04°30' W 002°32'0 0.0
2017-Sep-20 00:01N 04°30' W 002°32'0 0.0
2017-Sep-19 23:30N 04°30' W 002°32'0 0.0
2017-Sep-19 23:00N 04°30' W 002°32'0 0.4
2017-Sep-19 22:30N 04°29' W 002°32'0 0.5
2017-Sep-19 21:59N 04°29' W 002°32'0 0.0
2017-Sep-19 21:29N 04°29' W 002°32'0 0.0
2017-Sep-19 21:01N 04°29' W 002°32'0 0.0
2017-Sep-19 20:30N 04°29' W 002°32'0 0.3
2017-Sep-19 20:00N 04°29' W 002°32'5 9.1
2017-Sep-19 19:29N 04°31' W 002°28'510.2
2017-Sep-19 19:00N 04°32' W 002°23'510.2
2017-Sep-19 18:29N 04°33' W 002°18'510.5
2017-Sep-19 18:00N 04°35' W 002°13'610.6
2017-Sep-19 17:29N 04°36' W 002°08'510.5
2017-Sep-19 17:00N 04°37' W 002°03'510.4
2017-Sep-19 16:30N 04°39' W 001°58'510.4
2017-Sep-19 15:59N 04°41' W 001°53'510.2
2017-Sep-19 15:30N 04°44' W 001°49'510.0
2017-Sep-19 15:00N 04°47' W 001°45'5 9.8
2017-Sep-19 14:30N 04°51' W 001°43'3 5.0
2017-Sep-19 14:00N 04°54' W 001°43'1 2.4
2017-Sep-19 13:29N 04°53' W 001°44'0 0.0
2017-Sep-19 12:59N 04°53' W 001°44'0 0.0
2017-Sep-19 12:30N 04°53' W 001°44'0 0.0
2017-Sep-19 11:59N 04°53' W 001°44'0 0.0
2017-Sep-19 11:29N 04°53' W 001°44'0 0.0
2017-Sep-19 10:59N 04°53' W 001°44'0 0.0
2017-Sep-19 10:29N 04°53' W 001°44'0 0.0
2017-Sep-19 09:59N 04°53' W 001°44'0 0.0
2017-Sep-19 09:29N 04°53' W 001°44'0 0.0
2017-Sep-19 08:59N 04°53' W 001°44'1 2.2
2017-Sep-19 08:24N 04°54' W 001°43'1 2.9
2017-Sep-19 08:00N 04°53' W 001°42'0 0.0
2017-Sep-19 07:30N 04°53' W 001°42'0 0.0
2017-Sep-19 07:00N 04°53' W 001°42'2 3.6
2017-Sep-19 06:24N 04°51' W 001°43'11 9.3
2017-Sep-19 05:14N 04°43' W 001°50'2 9.6
2017-Sep-19 05:00N 04°42' W 001°52'9 9.8
2017-Sep-19 04:05N 04°39' W 002°00'1 9.9
2017-Sep-19 03:57N 04°38' W 002°02'5 9.9
2017-Sep-19 03:25N 04°36' W 002°07'410.0
2017-Sep-19 03:01N 04°35' W 002°11'510.2
2017-Sep-19 02:30N 04°34' W 002°15'510.0
2017-Sep-19 02:00N 04°32' W 002°20'510.1
2017-Sep-19 01:30N 04°31' W 002°25'5 9.9
2017-Sep-19 01:00N 04°30' W 002°30'2 3.1
2017-Sep-19 00:29N 04°29' W 002°31'0 0.0
2017-Sep-18 23:59N 04°29' W 002°31'0 0.0
2017-Sep-18 23:29N 04°29' W 002°31'0 0.0
2017-Sep-18 23:00N 04°29' W 002°31'1 2.5
2017-Sep-18 22:30N 04°29' W 002°33'1 1.0
2017-Sep-18 22:00N 04°28' W 002°33'0 0.1
2017-Sep-18 21:29N 04°28' W 002°33'0 0.2
2017-Sep-18 20:59N 04°28' W 002°33'0 0.6
2017-Sep-18 20:31N 04°29' W 002°33'0 0.0
2017-Sep-18 20:00N 04°29' W 002°33'0 0.0
2017-Sep-18 19:30N 04°29' W 002°33'0 0.5
2017-Sep-18 19:00N 04°28' W 002°33'2 3.0
2017-Sep-18 18:29N 04°30' W 002°32'0 0.1
2017-Sep-18 17:59N 04°30' W 002°32'0 0.0
2017-Sep-18 17:30N 04°30' W 002°32'0 0.0
2017-Sep-18 17:00N 04°30' W 002°32'0 0.0
2017-Sep-18 16:29N 04°30' W 002°32'0 0.0
2017-Sep-18 15:59N 04°30' W 002°32'0 0.0
2017-Sep-18 15:30N 04°30' W 002°32'0 0.3
2017-Sep-18 15:00N 04°30' W 002°32'0 0.0
2017-Sep-18 14:30N 04°30' W 002°32'0 0.0
2017-Sep-18 14:00N 04°30' W 002°32'0 0.0
2017-Sep-18 13:29N 04°30' W 002°32'0 0.0
2017-Sep-18 12:59N 04°30' W 002°32'0 0.0
2017-Sep-18 12:30N 04°30' W 002°32'0 0.0
2017-Sep-18 12:00N 04°30' W 002°32'0 0.0
2017-Sep-18 11:30N 04°30' W 002°32'0 0.0
2017-Sep-18 10:59N 04°30' W 002°32'0 0.0
2017-Sep-18 10:30N 04°30' W 002°32'0 0.0
2017-Sep-18 09:58N 04°30' W 002°32'0 0.0
2017-Sep-18 09:29N 04°30' W 002°32'0 0.0
2017-Sep-18 08:59N 04°30' W 002°32'0 0.0
2017-Sep-18 08:29N 04°30' W 002°32'0 0.0
2017-Sep-18 07:59N 04°30' W 002°32'0 0.0
2017-Sep-18 07:30N 04°30' W 002°32'0 0.0
2017-Sep-18 07:00N 04°30' W 002°32'0 0.0
2017-Sep-18 06:29N 04°30' W 002°32'0 0.0
2017-Sep-18 05:59N 04°30' W 002°32'0 0.0
2017-Sep-18 05:29N 04°30' W 002°32'0 0.0
2017-Sep-18 05:00N 04°30' W 002°32'0 0.0
2017-Sep-18 04:30N 04°30' W 002°32'0 0.0
2017-Sep-18 03:59N 04°30' W 002°32'0 0.0
2017-Sep-18 03:29N 04°30' W 002°32'0 0.0
2017-Sep-18 02:59N 04°30' W 002°32'0 0.0
2017-Sep-18 02:30N 04°30' W 002°32'0 0.0
2017-Sep-18 01:59N 04°30' W 002°32'0 0.0
2017-Sep-18 01:29N 04°30' W 002°32'0 0.0
2017-Sep-18 01:00N 04°30' W 002°32'0 0.0
2017-Sep-18 00:30N 04°30' W 002°32'0 0.0
2017-Sep-18 00:00N 04°30' W 002°32'0 0.0
2017-Sep-17 23:30N 04°30' W 002°32'0 0.0
2017-Sep-17 22:57N 04°30' W 002°32'0 0.0
2017-Sep-17 22:29N 04°30' W 002°32'0 0.0
2017-Sep-17 22:01N 04°30' W 002°32'0 0.0
2017-Sep-17 21:30N 04°30' W 002°32'0 0.0
2017-Sep-17 21:00N 04°30' W 002°32'0 0.0
2017-Sep-17 20:30N 04°30' W 002°32'0 0.0
2017-Sep-17 20:00N 04°30' W 002°32'0 0.0
2017-Sep-17 19:29N 04°30' W 002°32'0 0.0
2017-Sep-17 18:59N 04°30' W 002°32'0 0.0
2017-Sep-17 18:30N 04°30' W 002°32'0 0.0
2017-Sep-17 18:00N 04°30' W 002°32'0 0.0
2017-Sep-17 17:30N 04°30' W 002°32'0 0.0
2017-Sep-17 17:00N 04°30' W 002°32'0 0.0
2017-Sep-17 16:29N 04°30' W 002°32'0 0.0
2017-Sep-17 16:00N 04°30' W 002°32'0 0.0
2017-Sep-17 15:30N 04°30' W 002°32'0 0.0
2017-Sep-17 14:59N 04°30' W 002°32'0 0.0
2017-Sep-17 14:29N 04°30' W 002°32'0 0.0
2017-Sep-17 13:59N 04°30' W 002°32'0 0.0
2017-Sep-17 13:30N 04°30' W 002°32'0 0.0
2017-Sep-17 12:59N 04°30' W 002°32'0 0.0
2017-Sep-17 12:29N 04°30' W 002°32'0 0.0
2017-Sep-17 12:00N 04°30' W 002°32'0 0.0
2017-Sep-17 11:30N 04°30' W 002°32'0 0.0
2017-Sep-17 10:59N 04°30' W 002°32'0 0.0
2017-Sep-17 10:29N 04°30' W 002°32'0 0.0
2017-Sep-17 09:59N 04°30' W 002°32'0 0.1
2017-Sep-17 09:30N 04°30' W 002°32'0 0.3
2017-Sep-17 09:00N 04°29' W 002°32'0 0.0
2017-Sep-17 08:30N 04°29' W 002°32'0 0.0
2017-Sep-17 07:59N 04°29' W 002°32'0 0.0
2017-Sep-17 07:31N 04°29' W 002°32'0 0.0
2017-Sep-17 07:00N 04°29' W 002°32'0 0.0
2017-Sep-17 06:29N 04°29' W 002°32'0 0.2
2017-Sep-17 05:59N 04°29' W 002°31'0 0.2
2017-Sep-17 05:29N 04°29' W 002°31'0 0.0
2017-Sep-17 04:59N 04°29' W 002°31'0 0.0
2017-Sep-17 04:30N 04°29' W 002°31'0 0.0
2017-Sep-17 04:00N 04°29' W 002°31'0 0.0
2017-Sep-17 03:29N 04°29' W 002°31'0 0.0
2017-Sep-17 02:59N 04°29' W 002°31'0 0.0
2017-Sep-17 02:29N 04°29' W 002°31'0 0.0
2017-Sep-17 01:59N 04°29' W 002°31'0 0.0
2017-Sep-17 01:30N 04°29' W 002°31'0 0.0
2017-Sep-17 01:00N 04°29' W 002°31'0 0.0
2017-Sep-17 00:29N 04°29' W 002°31'0 0.0
2017-Sep-16 23:59N 04°29' W 002°31'0 0.0
2017-Sep-16 23:29N 04°29' W 002°31'0 0.0
2017-Sep-16 23:00N 04°29' W 002°31'0 0.1
2017-Sep-16 22:30N 04°29' W 002°31'1 2.1
2017-Sep-16 22:00N 04°29' W 002°30'0 0.0
2017-Sep-16 21:29N 04°29' W 002°30'0 0.1
2017-Sep-16 20:59N 04°29' W 002°30'0 0.4
2017-Sep-16 20:30N 04°29' W 002°31'1 1.5
2017-Sep-16 20:00N 04°30' W 002°31'0 0.0
2017-Sep-16 19:30N 04°30' W 002°31'0 0.0
2017-Sep-16 18:59N 04°30' W 002°31'0 1.0
2017-Sep-16 18:29N 04°29' W 002°31'0 0.2
2017-Sep-16 18:00N 04°29' W 002°31'0 0.3
2017-Sep-16 17:30N 04°29' W 002°31'1 1.4
2017-Sep-16 16:59N 04°29' W 002°32'1 2.7
2017-Sep-16 16:29N 04°29' W 002°33'1 1.5
2017-Sep-16 15:59N 04°28' W 002°33'0 0.0
2017-Sep-16 15:25N 04°28' W 002°33'0 0.2
2017-Sep-16 15:00N 04°28' W 002°33'0 0.6
2017-Sep-16 14:30N 04°29' W 002°33'0 1.0
2017-Sep-16 13:59N 04°28' W 002°33'0 0.1
2017-Sep-16 13:29N 04°28' W 002°33'0 0.0
2017-Sep-16 12:59N 04°28' W 002°33'0 0.3
2017-Sep-16 12:30N 04°28' W 002°33'0 0.5
2017-Sep-16 12:00N 04°28' W 002°33'0 0.2
2017-Sep-16 11:29N 04°28' W 002°33'1 2.8
2017-Sep-16 10:59N 04°29' W 002°31'1 1.6
2017-Sep-16 10:29N 04°29' W 002°30'0 0.0
2017-Sep-16 10:00N 04°29' W 002°30'0 0.1
2017-Sep-16 09:30N 04°29' W 002°30'0 0.5
2017-Sep-16 08:59N 04°29' W 002°31'0 0.3
2017-Sep-16 08:29N 04°29' W 002°31'0 0.0
2017-Sep-16 07:59N 04°29' W 002°31'0 0.6
2017-Sep-16 07:30N 04°29' W 002°31'0 0.0
2017-Sep-16 07:00N 04°29' W 002°31'0 0.0
2017-Sep-16 06:29N 04°29' W 002°31'0 0.8
2017-Sep-16 05:59N 04°29' W 002°31'3 6.4
2017-Sep-16 05:30N 04°31' W 002°28'5 9.3
2017-Sep-16 05:00N 04°32' W 002°23'5 9.4
2017-Sep-16 04:30N 04°33' W 002°19'5 9.3
2017-Sep-16 03:55N 04°34' W 002°13'4 9.4
2017-Sep-16 03:29N 04°35' W 002°10'4 9.3
2017-Sep-16 03:00N 04°37' W 002°05'5 9.5
2017-Sep-16 02:30N 04°39' W 002°01'510.6
2017-Sep-16 01:59N 04°41' W 001°56'510.8
2017-Sep-16 01:30N 04°43' W 001°51'510.6
2017-Sep-16 01:00N 04°46' W 001°47'610.5
2017-Sep-16 00:23N 04°51' W 001°43'2 0.1
2017-Sep-15 00:20N 04°53' W 001°42'0 0.0
2017-Sep-14 23:53N 04°53' W 001°42'  

Dump ship's entire track history